Date,TemperatureHighF,TemperatureAvgF,TemperatureLowF,DewpointHighF,DewpointAvgF,DewpointLowF,HumidityHigh,HumidityAvg,HumidityLow,PressureMaxIn,PressureMinIn,WindSpeedMaxMPH,WindSpeedAvgMPH,GustSpeedMaxMPH,PrecipitationSumIn
2014-2-1,66,60,56,35,32,29,41,35,29,29.77,29.65,0,0,0,0.00
2014-2-2,58,52,46,36,32,29,61,47,36,29.94,29.76,0,0,0,0.00
2014-2-3,60,51,43,35,30,18,56,46,24,29.86,29.57,0,0,0,0.00
2014-2-4,55,49,44,28,24,18,48,37,24,29.91,29.69,0,0,0,0.00
2014-2-5,47,40,32,24,19,14,49,42,32,30.01,29.89,0,0,0,0.00
2014-2-6,43,36,26,21,17,12,59,47,39,30.06,29.86,0,0,0,0.00
2014-2-7,58,48,39,30,25,18,49,41,32,29.97,29.84,0,0,0,0.00
2014-2-8,65,58,48,29,26,23,43,30,24,30.03,29.93,0,0,0,0.00
2014-2-9,71,61,50,36,27,20,32,28,23,29.99,29.83,0,0,0,0.00
2014-2-10,73,64,54,29,26,22,33,24,17,29.90,29.73,0,0,0,0.00
2014-2-11,63,51,42,28,25,22,46,37,25,30.00,29.76,0,0,0,0.00
2014-2-12,64,54,39,28,22,17,46,30,18,30.07,29.90,0,0,0,0.00
2014-2-13,72,63,50,27,21,15,28,21,17,29.96,29.83,0,0,0,0.00
2014-2-14,76,67,53,28,24,17,26,20,16,29.99,29.85,0,0,0,0.00
2014-2-15,79,65,54,25,20,16,24,19,11,30.00,29.89,0,0,0,0.00
2014-2-16,79,68,56,23,18,14,21,15,8,29.96,29.85,0,0,0,0.00
2014-2-17,73,66,58,20,17,13,19,16,12,30.05,29.91,0,0,0,0.00
2014-2-18,77,66,57,25,19,15,23,17,11,29.95,29.83,0,0,0,0.00
2014-2-19,74,66,56,22,16,12,21,15,10,29.85,29.67,0,0,0,0.00
2014-2-20,66,62,52,19,11,-2,19,14,10,29.96,29.70,0,0,0,0.00
2014-2-21,68,56,44,9,2,-8,12,11,8,29.96,29.80,0,0,0,0.00
2014-2-22,73,62,50,13,9,3,16,12,7,29.87,29.75,0,0,0,0.00
2014-2-23,75,66,55,27,15,8,22,14,8,29.96,29.83,0,0,0,0.00
2014-2-24,76,68,58,28,24,20,25,20,14,29.98,29.84,0,0,0,0.00
2014-2-25,72,65,58,35,25,18,34,22,18,29.93,29.81,0,0,0,0.00
2014-2-26,68,61,50,36,33,30,48,36,30,29.98,29.80,0,0,0,0.00
2014-2-27,75,65,54,34,30,25,39,28,17,29.88,29.68,0,0,0,0.00
2014-2-28,76,68,59,36,32,25,37,27,19,29.85,29.74,0,0,0,0.00